createdAt,value
2018-01-21T00:00:14.009Z,51.62
2018-01-21T00:02:41.950Z,51.67
2018-01-21T00:05:10.056Z,51.68
2018-01-21T00:07:38.208Z,51.64
2018-01-21T00:10:08.445Z,51.60
2018-01-21T00:12:36.501Z,51.49
2018-01-21T00:15:04.627Z,51.40
2018-01-21T00:17:32.951Z,51.41
2018-01-21T00:20:03.175Z,51.41
2018-01-21T00:22:39.983Z,51.41
2018-01-21T00:25:08.222Z,51.47
2018-01-21T00:27:36.405Z,51.52
2018-01-21T00:30:04.554Z,51.49
2018-01-21T00:32:36.938Z,51.41
2018-01-21T00:35:04.976Z,51.41
2018-01-21T00:37:37.193Z,51.47
2018-01-21T00:40:07.402Z,51.48
2018-01-21T00:42:35.133Z,51.50
2018-01-21T00:45:03.073Z,51.47
2018-01-21T00:47:33.160Z,51.53
2018-01-21T00:50:00.993Z,51.62
2018-01-21T00:52:29.168Z,51.61
2018-01-21T00:54:57.125Z,51.55
2018-01-21T00:57:25.388Z,51.54
2018-01-21T00:59:53.502Z,51.50
2018-01-21T01:02:21.889Z,51.43
2018-01-21T01:04:50.136Z,51.49
2018-01-21T01:07:20.786Z,51.54
2018-01-21T01:09:48.858Z,51.66
2018-01-21T01:12:19.085Z,51.55
2018-01-21T01:14:47.099Z,51.52
2018-01-21T01:17:15.222Z,51.44
2018-01-21T01:19:43.480Z,51.44
2018-01-21T01:22:11.422Z,51.75
2018-01-21T01:24:39.486Z,51.76
2018-01-21T01:27:11.503Z,51.98
2018-01-21T01:29:39.576Z,51.91
2018-01-21T01:32:10.109Z,51.77
2018-01-21T01:34:40.328Z,52.20
2018-01-21T01:37:10.552Z,51.86
2018-01-21T01:39:38.804Z,51.94
2018-01-21T01:42:06.967Z,52.04
2018-01-21T01:44:34.934Z,51.89
2018-01-21T01:47:03.130Z,51.72
2018-01-21T01:49:31.091Z,51.76
2018-01-21T01:51:59.031Z,51.90
2018-01-21T01:54:27.322Z,51.94
2018-01-21T01:56:55.487Z,51.89
2018-01-21T01:59:23.687Z,51.73
2018-01-21T02:01:52.142Z,51.61
2018-01-21T02:04:20.135Z,51.68
2018-01-21T02:06:50.463Z,51.64
2018-01-21T02:09:22.846Z,51.68
2018-01-21T02:11:53.063Z,51.71
2018-01-21T02:14:21.195Z,51.73
2018-01-21T02:16:49.419Z,51.79
2018-01-21T02:19:19.432Z,51.83
2018-01-21T02:21:47.550Z,51.83
2018-01-21T02:24:15.865Z,51.77
2018-01-21T02:26:43.696Z,52.10
2018-01-21T02:29:11.861Z,52.34
2018-01-21T02:31:41.932Z,52.36
2018-01-21T02:34:09.768Z,52.10
2018-01-21T02:36:41.793Z,51.77
2018-01-21T02:39:09.873Z,51.95
2018-01-21T02:41:38.209Z,51.95
2018-01-21T02:44:06.587Z,51.96
2018-01-21T02:46:34.525Z,52.05
2018-01-21T02:49:04.637Z,51.95
2018-01-21T02:51:32.829Z,52.18
2018-01-21T02:54:00.717Z,52.11
2018-01-21T02:56:28.609Z,52.18
2018-01-21T02:58:56.697Z,52.23
2018-01-21T03:01:24.766Z,52.38
2018-01-21T03:03:56.858Z,52.26
2018-01-21T03:06:24.893Z,52.12
2018-01-21T03:08:52.985Z,52.02
2018-01-21T03:11:20.953Z,51.82
2018-01-21T03:13:51.127Z,51.70
2018-01-21T03:16:21.334Z,52.01
2018-01-21T03:18:49.148Z,52.04
2018-01-21T03:21:19.328Z,51.92
2018-01-21T03:23:47.154Z,51.75
2018-01-21T03:26:15.220Z,51.47
2018-01-21T03:28:43.421Z,51.60
2018-01-21T03:31:11.449Z,51.31
2018-01-21T03:33:39.435Z,51.75
2018-01-21T03:36:07.642Z,52.04
2018-01-21T03:38:35.322Z,52.01
2018-01-21T03:41:03.061Z,52.08
2018-01-21T03:43:33.378Z,51.97
2018-01-21T03:46:04.028Z,52.06
2018-01-21T03:48:31.984Z,52.00
2018-01-21T03:50:59.925Z,52.07
2018-01-21T03:53:28.116Z,52.18
2018-01-21T03:55:56.195Z,51.86
2018-01-21T03:58:24.119Z,51.71
2018-01-21T04:00:56.310Z,51.84
2018-01-21T04:03:28.509Z,51.83
2018-01-21T04:05:56.469Z,51.75
2018-01-21T04:08:24.414Z,51.60
2018-01-21T04:10:54.559Z,51.44
2018-01-21T04:13:22.512Z,51.53
2018-01-21T04:15:52.726Z,51.78
2018-01-21T04:18:20.669Z,51.71
2018-01-21T04:20:48.888Z,51.68
2018-01-21T04:23:23.316Z,51.43
2018-01-21T04:25:51.175Z,51.74
2018-01-21T04:28:19.106Z,52.15
2018-01-21T04:30:47.297Z,52.45
2018-01-21T04:33:17.335Z,52.22
2018-01-21T04:35:45.710Z,51.92
2018-01-21T04:38:13.703Z,51.98
2018-01-21T04:40:42.032Z,51.68
2018-01-21T04:43:09.998Z,51.76
2018-01-21T04:45:40.041Z,51.86
2018-01-21T04:48:07.978Z,51.69
2018-01-21T04:50:38.173Z,51.46
2018-01-21T04:53:06.360Z,51.44
2018-01-21T04:55:36.432Z,51.60
2018-01-21T04:58:05.718Z,51.78
2018-01-21T05:00:33.556Z,51.71
2018-01-21T05:03:01.862Z,51.77
2018-01-21T05:05:29.932Z,51.89
2018-01-21T05:07:57.902Z,52.02
2018-01-21T05:10:28.231Z,52.03
2018-01-21T05:12:56.083Z,51.85
2018-01-21T05:15:24.366Z,51.67
2018-01-21T05:17:52.590Z,51.85
2018-01-21T05:20:24.820Z,51.93
2018-01-21T05:22:52.678Z,52.02
2018-01-21T05:25:20.373Z,52.25
2018-01-21T05:27:48.635Z,52.27
2018-01-21T05:30:16.791Z,51.73
2018-01-21T05:32:44.983Z,51.38
2018-01-21T05:35:13.243Z,51.11
2018-01-21T05:37:41.264Z,51.45
2018-01-21T05:40:09.253Z,51.74
2018-01-21T05:42:37.246Z,51.69
2018-01-21T05:45:07.259Z,51.27
2018-01-21T05:47:35.200Z,51.42
2018-01-21T05:50:05.142Z,51.53
2018-01-21T05:52:33.434Z,51.71
2018-01-21T05:55:01.671Z,51.83
2018-01-21T05:57:32.030Z,51.77
2018-01-21T06:00:00.089Z,51.74
2018-01-21T06:02:27.918Z,51.47
2018-01-21T06:04:56.133Z,51.44
2018-01-21T06:07:26.459Z,51.81
2018-01-21T06:09:56.865Z,52.03
2018-01-21T06:12:27.081Z,52.03
2018-01-21T06:14:56.094Z,51.75
2018-01-21T06:17:25.086Z,51.77
2018-01-21T06:19:53.001Z,51.56
2018-01-21T06:22:23.193Z,51.63
2018-01-21T06:24:53.157Z,51.61
2018-01-21T06:27:21.461Z,51.57
2018-01-21T06:29:49.362Z,51.62
2018-01-21T06:32:19.477Z,51.64
2018-01-21T06:34:47.694Z,51.35
2018-01-21T06:37:15.657Z,51.33
2018-01-21T06:39:43.975Z,51.54
2018-01-21T06:42:11.865Z,51.50
2018-01-21T06:44:44.258Z,51.37
2018-01-21T06:47:12.481Z,51.42
2018-01-21T06:49:42.888Z,51.36
2018-01-21T06:52:10.827Z,51.25
2018-01-21T06:54:39.018Z,51.05
2018-01-21T06:57:07.220Z,50.89
2018-01-21T06:59:35.174Z,51.07
2018-01-21T07:02:03.114Z,51.29
2018-01-21T07:04:31.134Z,51.22
2018-01-21T07:07:03.200Z,51.07
2018-01-21T07:09:35.744Z,50.83
2018-01-21T07:12:11.937Z,50.84
2018-01-21T07:14:40.815Z,50.61
2018-01-21T07:17:09.616Z,50.51
2018-01-21T07:19:38.048Z,50.52
2018-01-21T07:22:06.112Z,50.54
2018-01-21T07:24:34.278Z,50.57
2018-01-21T07:27:02.528Z,50.54
2018-01-21T07:29:31.257Z,50.55
2018-01-21T07:31:59.724Z,50.43
2018-01-21T07:34:29.992Z,50.34
2018-01-21T07:36:57.981Z,50.33
2018-01-21T07:39:28.403Z,50.40
2018-01-21T07:41:57.085Z,50.38
2018-01-21T07:44:26.153Z,50.39
2018-01-21T07:46:54.749Z,50.38
2018-01-21T07:49:23.433Z,50.48
2018-01-21T07:51:53.925Z,50.55
2018-01-21T07:54:21.914Z,50.61
2018-01-21T07:56:53.792Z,50.69
2018-01-21T07:59:21.918Z,50.73
2018-01-21T08:01:50.084Z,50.73
2018-01-21T08:04:18.175Z,50.78
2018-01-21T08:06:46.143Z,50.74
2018-01-21T08:09:14.331Z,50.80
2018-01-21T08:11:42.830Z,50.77
2018-01-21T08:14:11.091Z,50.73
2018-01-21T08:16:41.788Z,50.81
2018-01-21T08:19:10.027Z,50.89
2018-01-21T08:21:38.493Z,50.82
2018-01-21T08:24:06.374Z,50.79
2018-01-21T08:26:35.260Z,50.73
2018-01-21T08:29:03.507Z,50.74
2018-01-21T08:31:31.395Z,50.71
2018-01-21T08:34:05.185Z,50.63
2018-01-21T08:36:38.650Z,50.58
2018-01-21T08:39:16.200Z,50.75
2018-01-21T08:44:59.329Z,50.62
2018-01-21T08:47:30.185Z,50.74
2018-01-21T08:49:58.021Z,50.73
2018-01-21T08:52:30.308Z,50.67
2018-01-21T08:54:58.784Z,50.70
2018-01-21T08:57:26.645Z,50.68
2018-01-21T08:59:55.608Z,50.72
2018-01-21T09:02:23.573Z,50.75
2018-01-21T09:04:55.580Z,50.87
2018-01-21T09:07:23.979Z,50.83
2018-01-21T09:09:54.477Z,50.95
2018-01-21T09:12:24.860Z,51.14
2018-01-21T09:14:52.825Z,51.19
2018-01-21T09:17:22.796Z,51.28
2018-01-21T09:19:50.506Z,51.24
2018-01-21T09:22:20.421Z,51.25
2018-01-21T09:24:48.748Z,51.73
2018-01-21T09:27:18.961Z,51.50
2018-01-21T09:29:47.954Z,51.25
2018-01-21T09:32:20.030Z,51.06
2018-01-21T09:34:48.935Z,50.99
2018-01-21T09:37:20.968Z,50.91
2018-01-21T09:39:48.989Z,50.83
2018-01-21T09:42:18.138Z,50.84
2018-01-21T09:44:45.984Z,50.87
2018-01-21T09:47:14.288Z,50.84
2018-01-21T09:49:42.541Z,50.82
2018-01-21T09:52:10.516Z,50.81
2018-01-21T09:54:38.746Z,50.75
2018-01-21T09:57:09.090Z,50.74
2018-01-21T09:59:37.587Z,50.75
2018-01-21T10:02:05.680Z,50.71
2018-01-21T10:04:34.662Z,50.72
2018-01-21T10:07:02.724Z,50.71
2018-01-21T10:09:30.773Z,50.76
2018-01-21T10:12:03.338Z,50.76
2018-01-21T10:14:31.882Z,50.73
2018-01-21T10:17:02.687Z,50.73
2018-01-21T10:19:31.602Z,50.74
2018-01-21T10:21:59.869Z,50.75
2018-01-21T10:24:28.092Z,50.74
2018-01-21T10:26:56.350Z,50.73
2018-01-21T10:29:28.706Z,50.71
2018-01-21T10:31:56.350Z,50.75
2018-01-21T10:34:25.460Z,50.75
2018-01-21T10:36:53.830Z,50.77
2018-01-21T10:39:24.320Z,50.79
2018-01-21T10:41:52.264Z,50.79
2018-01-21T10:44:20.270Z,50.78
2018-01-21T10:46:52.568Z,50.81
2018-01-21T10:49:21.438Z,50.87
2018-01-21T10:51:57.625Z,50.99
2018-01-21T10:54:25.680Z,50.96
2018-01-21T10:56:53.792Z,50.93
2018-01-21T10:59:22.623Z,50.94
2018-01-21T11:01:52.668Z,50.96
2018-01-21T11:04:21.034Z,50.98
2018-01-21T11:06:50.025Z,50.99
2018-01-21T11:09:18.784Z,50.99
2018-01-21T11:11:46.850Z,51.02
2018-01-21T11:14:15.678Z,51.00
2018-01-21T11:16:43.599Z,51.08
2018-01-21T11:19:13.780Z,51.09
2018-01-21T11:21:41.588Z,51.10
2018-01-21T11:24:11.789Z,51.19
2018-01-21T11:26:39.993Z,51.16
2018-01-21T11:29:08.192Z,51.17
2018-01-21T11:31:36.148Z,51.19
2018-01-21T11:34:04.178Z,51.17
2018-01-21T11:36:34.331Z,51.22
2018-01-21T11:39:02.523Z,51.22
2018-01-21T11:41:33.036Z,51.26
2018-01-21T11:44:01.202Z,51.29
2018-01-21T11:46:32.110Z,51.12
2018-01-21T11:49:00.336Z,50.91
2018-01-21T11:51:28.275Z,50.74
2018-01-21T11:53:58.432Z,50.61
2018-01-21T11:56:26.378Z,50.60
2018-01-21T11:58:56.324Z,50.54
2018-01-21T12:01:25.210Z,50.59
2018-01-21T12:03:54.276Z,50.66
2018-01-21T12:06:24.396Z,50.67
2018-01-21T12:08:52.388Z,50.71
2018-01-21T12:11:24.451Z,50.79
2018-01-21T12:13:52.671Z,50.87
2018-01-21T12:16:21.825Z,50.88
2018-01-21T12:18:50.067Z,51.02
2018-01-21T12:21:22.342Z,51.04
2018-01-21T12:23:50.283Z,51.10
2018-01-21T12:26:20.559Z,51.10
2018-01-21T12:28:48.380Z,51.10
2018-01-21T12:31:17.046Z,51.13
2018-01-21T12:33:44.885Z,51.13
2018-01-21T12:36:13.139Z,51.15
2018-01-21T12:38:41.526Z,51.18
2018-01-21T12:41:09.906Z,51.16
2018-01-21T12:43:39.194Z,51.21
2018-01-21T12:46:12.197Z,51.25
2018-01-21T12:48:40.603Z,51.26
2018-01-21T12:51:09.117Z,51.26
2018-01-21T12:53:39.233Z,51.27
2018-01-21T12:56:08.217Z,51.30
2018-01-21T12:58:36.835Z,51.34
2018-01-21T13:01:05.828Z,51.36
2018-01-21T13:03:38.696Z,51.39
2018-01-21T13:06:08.712Z,51.45
2018-01-21T13:08:37.910Z,51.50
2018-01-21T13:11:08.619Z,51.49
2018-01-21T13:13:37.597Z,51.50
2018-01-21T13:16:07.783Z,51.56
2018-01-21T13:18:37.016Z,51.61
2018-01-21T13:21:04.953Z,51.63
2018-01-21T13:23:33.694Z,51.67
2018-01-21T13:26:03.765Z,51.65
2018-01-21T13:28:32.434Z,51.65
2018-01-21T13:31:00.692Z,51.63
2018-01-21T13:33:31.075Z,51.72
2018-01-21T13:36:00.471Z,51.79
2018-01-21T13:38:28.992Z,51.73
2018-01-21T13:40:57.275Z,51.81
2018-01-21T13:43:27.316Z,51.84
2018-01-21T13:45:59.672Z,51.81
2018-01-21T13:48:27.774Z,51.90
2018-01-21T13:50:55.814Z,51.93
2018-01-21T13:53:24.053Z,51.95
2018-01-21T13:55:52.023Z,51.91
2018-01-21T13:58:24.345Z,52.00
2018-01-21T14:00:52.412Z,52.04
2018-01-21T14:03:20.036Z,52.04
2018-01-21T14:05:47.726Z,52.08
2018-01-21T14:08:18.458Z,52.05
2018-01-21T14:10:46.541Z,52.08
2018-01-21T14:13:17.745Z,52.14
2018-01-21T14:15:46.244Z,52.29
2018-01-21T14:18:14.285Z,52.24
2018-01-21T14:20:42.275Z,52.26
2018-01-21T14:23:11.039Z,52.24
2018-01-21T14:25:39.980Z,52.24
2018-01-21T14:28:10.711Z,52.25
2018-01-21T14:30:38.343Z,52.27
2018-01-21T14:33:08.686Z,52.25
2018-01-21T14:35:36.517Z,52.28
2018-01-21T14:38:04.845Z,52.34
2018-01-21T14:40:32.982Z,52.35
2018-01-21T14:43:03.209Z,52.38
2018-01-21T14:45:31.738Z,52.45
2018-01-21T14:48:00.492Z,52.46
2018-01-21T14:50:28.868Z,52.46
2018-01-21T14:52:56.825Z,52.48
2018-01-21T14:55:25.190Z,52.43
2018-01-21T14:57:53.696Z,52.45
2018-01-21T15:00:24.856Z,52.50
2018-01-21T15:02:52.666Z,52.48
2018-01-21T15:05:24.681Z,52.48
2018-01-21T15:07:52.625Z,52.54
2018-01-21T15:10:20.608Z,52.53
2018-01-21T15:12:48.880Z,52.57
2018-01-21T15:15:16.841Z,52.59
2018-01-21T15:17:44.781Z,52.58
2018-01-21T15:20:12.970Z,52.59
2018-01-21T15:22:41.052Z,52.60
2018-01-21T15:25:11.125Z,52.57
2018-01-21T15:27:41.914Z,52.53
2018-01-21T15:30:09.933Z,52.58
2018-01-21T15:32:38.747Z,52.56
2018-01-21T15:35:07.045Z,52.57
2018-01-21T15:37:34.880Z,52.67
2018-01-21T15:40:07.192Z,52.66
2018-01-21T15:42:35.044Z,52.68
2018-01-21T15:45:03.076Z,52.68
2018-01-21T15:47:32.018Z,52.64
2018-01-21T15:50:01.032Z,52.65
2018-01-21T15:52:31.235Z,52.68
2018-01-21T15:54:59.002Z,52.60
2018-01-21T15:57:29.220Z,52.72
2018-01-21T15:59:59.736Z,52.73
2018-01-21T16:02:27.807Z,52.68
2018-01-21T16:04:58.955Z,52.69
2018-01-21T16:07:26.916Z,52.73
2018-01-21T16:09:54.854Z,52.76
2018-01-21T16:12:27.170Z,52.81
2018-01-21T16:14:56.038Z,52.82
2018-01-21T16:17:26.256Z,52.84
2018-01-21T16:19:54.242Z,52.81
2018-01-21T16:22:24.363Z,52.82
2018-01-21T16:24:52.597Z,52.78
2018-01-21T16:27:20.813Z,52.79
2018-01-21T16:29:49.086Z,52.77
2018-01-21T16:32:17.744Z,52.77
2018-01-21T16:34:45.711Z,52.79
2018-01-21T16:37:25.457Z,52.78
2018-01-21T16:39:59.912Z,52.80
2018-01-21T16:42:27.967Z,52.85
2018-01-21T16:44:56.622Z,52.96
2018-01-21T16:47:25.260Z,52.96
2018-01-21T16:49:54.024Z,52.87
2018-01-21T16:52:26.452Z,52.89
2018-01-21T16:54:54.533Z,52.94
2018-01-21T16:57:24.577Z,52.95
2018-01-21T16:59:54.602Z,52.97
2018-01-21T17:02:22.429Z,53.04
2018-01-21T17:04:51.243Z,52.99
2018-01-21T17:07:19.708Z,53.00
2018-01-21T17:09:47.702Z,53.06
2018-01-21T17:12:16.088Z,53.05
2018-01-21T17:14:49.183Z,53.10
2018-01-21T17:17:17.550Z,53.07
2018-01-21T17:19:45.514Z,53.09
2018-01-21T17:22:15.852Z,53.12
2018-01-21T17:24:44.220Z,53.02
2018-01-21T17:27:12.982Z,53.09
2018-01-21T17:29:41.173Z,53.19
2018-01-21T17:32:10.277Z,53.23
2018-01-21T17:34:40.810Z,53.26
2018-01-21T17:37:09.803Z,53.22
2018-01-21T17:39:38.959Z,53.21
2018-01-21T17:42:06.925Z,53.18
2018-01-21T17:44:35.248Z,53.24
2018-01-21T17:47:03.508Z,53.23
2018-01-21T17:49:31.446Z,53.27
2018-01-21T17:52:01.362Z,53.27
2018-01-21T17:54:29.557Z,53.28
2018-01-21T17:56:59.596Z,53.24
2018-01-21T17:59:29.817Z,53.23
2018-01-21T18:01:57.950Z,53.26
2018-01-21T18:04:27.891Z,53.16
2018-01-21T18:06:55.914Z,53.23
2018-01-21T18:09:23.625Z,53.23
2018-01-21T18:11:54.535Z,53.25
2018-01-21T18:14:25.050Z,53.28
2018-01-21T18:16:57.073Z,53.32
2018-01-21T18:19:27.287Z,53.36
2018-01-21T18:21:55.506Z,53.33
2018-01-21T18:24:32.651Z,53.29
2018-01-21T18:27:01.932Z,53.30
2018-01-21T18:29:32.176Z,53.39
2018-01-21T18:32:03.006Z,53.37
2018-01-21T18:34:31.875Z,53.43
2018-01-21T18:36:59.812Z,53.44
2018-01-21T18:39:29.963Z,53.49
2018-01-21T18:41:58.393Z,53.50
2018-01-21T18:44:26.613Z,53.47
2018-01-21T18:46:58.801Z,53.50
2018-01-21T18:49:27.599Z,53.45
2018-01-21T18:51:55.554Z,53.48
2018-01-21T18:54:27.616Z,53.44
2018-01-21T18:56:56.197Z,53.47
2018-01-21T18:59:24.528Z,53.52
2018-01-21T19:01:55.525Z,53.50
2018-01-21T19:04:23.667Z,53.47
2018-01-21T19:06:55.955Z,53.44
2018-01-21T19:09:26.184Z,53.49
2018-01-21T19:11:54.405Z,53.52
2018-01-21T19:14:25.444Z,53.52
2018-01-21T19:16:53.455Z,53.56
2018-01-21T19:19:21.901Z,53.57
2018-01-21T19:21:49.920Z,53.52
2018-01-21T19:24:19.210Z,53.55
2018-01-21T19:26:47.174Z,53.61
2018-01-21T19:29:15.113Z,53.67
2018-01-21T19:31:48.036Z,53.60
2018-01-21T19:34:15.870Z,53.56
2018-01-21T19:36:44.533Z,53.56
2018-01-21T19:39:27.912Z,53.60
2018-01-21T19:41:57.589Z,53.54
2018-01-21T19:44:31.008Z,53.56
2018-01-21T19:46:59.044Z,53.55
2018-01-21T19:49:27.757Z,53.64
2018-01-21T19:51:56.020Z,53.75
2018-01-21T19:54:25.720Z,53.81
2018-01-21T19:56:54.655Z,53.74
2018-01-21T19:59:25.693Z,53.71
2018-01-21T20:01:54.060Z,53.69
2018-01-21T20:04:23.557Z,53.69
2018-01-21T20:06:52.277Z,53.73
2018-01-21T20:09:20.234Z,53.75
2018-01-21T20:11:48.494Z,53.73
2018-01-21T20:14:19.040Z,53.71
2018-01-21T20:16:46.700Z,53.70
2018-01-21T20:19:14.455Z,53.72
2018-01-21T20:21:45.260Z,53.71
2018-01-21T20:24:17.315Z,53.70
2018-01-21T20:26:45.392Z,53.71
2018-01-21T20:29:13.357Z,53.86
2018-01-21T20:31:42.102Z,53.85
2018-01-21T20:34:11.267Z,53.80
2018-01-21T20:36:39.537Z,53.74
2018-01-21T20:39:11.236Z,53.85
2018-01-21T20:41:38.940Z,53.86
2018-01-21T20:44:11.283Z,53.85
2018-01-21T20:46:41.517Z,53.79
2018-01-21T20:49:09.706Z,53.84
2018-01-21T20:51:43.222Z,53.87
2018-01-21T20:54:17.269Z,53.91
2018-01-21T20:56:48.553Z,53.85
2018-01-21T20:59:17.541Z,53.90
2018-01-21T21:01:46.066Z,53.94
2018-01-21T21:04:14.147Z,53.97
2018-01-21T21:06:43.328Z,54.06
2018-01-21T21:09:12.524Z,53.95
2018-01-21T21:11:42.755Z,54.00
2018-01-21T21:14:10.511Z,54.06
2018-01-21T21:16:40.736Z,54.07
2018-01-21T21:19:08.697Z,54.09
2018-01-21T21:21:37.640Z,54.06
2018-01-21T21:24:09.862Z,54.00
2018-01-21T21:26:37.986Z,53.95
2018-01-21T21:29:07.101Z,53.90
2018-01-21T21:31:38.194Z,53.91
2018-01-21T21:34:06.442Z,53.93
2018-01-21T21:36:36.823Z,53.91
2018-01-21T21:39:04.814Z,53.92
2018-01-21T21:41:36.803Z,53.93
2018-01-21T21:44:07.024Z,53.92
2018-01-21T21:46:38.660Z,53.91
2018-01-21T21:49:06.700Z,53.89
2018-01-21T21:51:36.145Z,53.87
2018-01-21T21:54:06.684Z,53.87
2018-01-21T21:56:34.647Z,53.89
2018-01-21T21:59:04.922Z,53.86
2018-01-21T22:01:34.243Z,53.86
2018-01-21T22:04:07.498Z,53.87
2018-01-21T22:06:36.327Z,53.86
2018-01-21T22:09:05.485Z,53.85
2018-01-21T22:11:34.514Z,53.86
2018-01-21T22:14:02.756Z,53.85
2018-01-21T22:16:32.251Z,53.85
2018-01-21T22:19:05.813Z,53.83
2018-01-21T22:21:34.787Z,53.84
2018-01-21T22:24:07.955Z,53.87
2018-01-21T22:26:36.817Z,53.84
2018-01-21T22:29:06.659Z,53.84
2018-01-21T22:31:35.780Z,53.81
2018-01-21T22:34:04.568Z,53.85
2018-01-21T22:36:34.559Z,53.83
2018-01-21T22:39:04.272Z,53.82
2018-01-21T22:41:33.084Z,53.84
2018-01-21T22:44:01.038Z,53.84
2018-01-21T22:46:29.229Z,53.84
2018-01-21T22:48:57.171Z,53.85
2018-01-21T22:51:29.181Z,53.86
2018-01-21T22:53:56.874Z,53.86
2018-01-21T22:56:29.003Z,53.88
2018-01-21T22:58:59.526Z,53.87
2018-01-21T23:01:27.904Z,53.86
2018-01-21T23:03:59.969Z,53.89
2018-01-21T23:06:28.151Z,53.87
2018-01-21T23:08:58.144Z,53.89
2018-01-21T23:11:25.883Z,53.90
2018-01-21T23:13:53.573Z,53.91
2018-01-21T23:16:26.412Z,53.92
2018-01-21T23:18:54.352Z,53.92
2018-01-21T23:21:22.657Z,53.93
2018-01-21T23:23:50.734Z,53.93
2018-01-21T23:26:19.055Z,53.95
2018-01-21T23:28:47.015Z,53.98
2018-01-21T23:31:14.994Z,54.01
2018-01-21T23:33:43.278Z,54.04
2018-01-21T23:36:11.286Z,54.08
2018-01-21T23:38:45.860Z,54.08
2018-01-21T23:41:13.817Z,54.10
2018-01-21T23:43:41.794Z,54.11
2018-01-21T23:46:10.074Z,54.14
2018-01-21T23:48:38.341Z,54.18
2018-01-21T23:51:06.223Z,54.17
2018-01-21T23:53:34.368Z,54.17
2018-01-21T23:56:02.609Z,54.17
2018-01-21T23:58:30.601Z,54.20
